METAR Data
IDs: Format: Raw Decoded Include TAF

Data at: 0822 UTC 23 Sep 2018

KDLH 230755Z 09016KT 9SM OVC002 09/08 A3010 RMK AO2 PK WND 09026/0719 SLP199 T00940083
KDLH 230702Z 09012G22KT 10SM BKN004 11/09 A3011 RMK AO2 T01060089
KDLH 230655Z 10016G22KT 10SM FEW100 11/09 A3011 RMK AO2 SLP200 T01110089
KDLH 230555Z 11007KT 10SM FEW100 11/09 A3009 RMK AO2 SLP195 60001 T01060089 10139 20089 401670039 55001
KDLH 230455Z 10005KT 10SM CLR 10/08 A3008 RMK AO2 SLP194 T01000078
KDLH 230355Z 13005KT 10SM FEW120 09/08 A3008 RMK AO2 SLP194 T00940078
KDLH 230255Z 00000KT 10SM CLR 10/08 A3009 RMK AO2 SLP199 60001 T01000083 51011
KDLH 230155Z 00000KT 10SM OVC090 11/09 A3009 RMK AO2 RAB0056E30 SLP197 P0001 T01110089
KDLH 230055Z 00000KT 10SM SCT110 12/07 A3007 RMK AO2 SLP193 T01220067
KDLH 222355Z 19003KT 10SM FEW085 13/07 A3006 RMK AO2 SLP187 T01330067 10167 20133 55006
KDLH 222255Z 20006KT 10SM BKN085 14/06 A3005 RMK AO2 SLP185 T01440061
KDLH 222155Z 20012KT 10SM BKN075 BKN090 16/06 A3007 RMK AO2 SLP192 T01560056
KDLH 222055Z 21012KT 10SM BKN075 16/06 A3008 RMK AO2 SLP194 T01610056 56027
KDLH 221955Z 21014KT 10SM BKN085 17/06 A3010 RMK AO2 SLP200 T01670056
KDLH 221855Z 22014G23KT 10SM FEW040 OVC100 14/04 A3013 RMK AO2 SLP213 T01440044
KDLH 221755Z 24017G22KT 10SM BKN090 15/05 A3016 RMK AO2 PK WND 22030/1706 SLP223 T01500050 10150 20072 56023
KDLH 221655Z 24018G24KT 10SM BKN080 OVC110 14/04 A3018 RMK AO2 PK WND 21027/1556 SLP230 T01390044
KDLH 221555Z 21019G23KT 10SM OVC120 12/06 A3021 RMK AO2 SLP239 T01220056
KDLH 221455Z 23012KT 10SM OVC120 11/06 A3023 RMK AO2 SLP249 T01060056 58003
KDLH 221355Z 23008KT 10SM SCT110 09/04 A3024 RMK AO2 SLP250 T00940044
KDLH 221255Z 24007KT 10SM SCT110 08/04 A3025 RMK AO2 SLP255 T00780039
KDLH 221155Z 25007KT 10SM FEW120 07/04 A3024 RMK AO2 SLP252 T00720039 10072 20039 53000
KDLH 221055Z 24008KT 10SM SCT120 07/04 A3024 RMK AO2 SLP248 T00720044
KDLH 220955Z 25005KT 10SM CLR 05/03 A3024 RMK AO2 SLP252 T00500028
KDLH 220855Z 25003KT 10SM CLR 05/03 A3024 RMK AO2 SLP252 T00500028 58008
KDLH 220755Z 26006KT 10SM CLR 05/03 A3025 RMK AO2 SLP255 T00500028
KDLH 220655Z 28007KT 10SM CLR 05/02 A3027 RMK AO2 SLP261 T00500022
KDLH 220555Z 27006KT 10SM CLR 05/02 A3027 RMK AO2 SLP263 T00500022 10117 20050 401500050 50004
KDLH 220455Z 27007KT 10SM CLR 06/03 A3027 RMK AO2 SLP263 T00560028
KDLH 220355Z 27008KT 10SM CLR 06/03 A3027 RMK AO2 SLP263 T00610033
KDLH 220255Z 26006KT 10SM CLR 07/03 A3026 RMK AO2 SLP258 T00670033 51020
KDLH 220155Z 26007KT 10SM CLR 07/03 A3025 RMK AO2 SLP253 T00720033
KDLH 220055Z 27006KT 10SM CLR 08/03 A3021 RMK AO2 SLP242 T00780033
KDLH 212355Z 29008KT 10SM FEW055 12/03 A3020 RMK AO2 SLP233 T01170033 10139 20094 53017
KDLH 212255Z 28008KT 10SM FEW055 13/03 A3017 RMK AO2 SLP222 T01330033
KDLH 212155Z 31008KT 10SM FEW055 14/03 A3016 RMK AO2 SLP218 T01390028
KDLH 212055Z 35012G19KT 10SM BKN041 OVC050 13/03 A3014 RMK AO2 SLP214 T01330033 51025